Latest Weather Observations for Cabramurra

IDN60801

Issued at 11:02 pm EDT Sunday 29 March 2015 (issued every 30 minutes, with the page automatically refreshed every 10 minutes)

About weather observations | Map of weather stations | Latest weather observations for NSW | Other Formats
Station Details ID: 072161 Name: CABRAMURRA SMHEA AWS Lat: -35.94 Lon: 148.38 Height: 1482.4 m
Data from the previous 72 hours. | See also: Recent months at Cabramurra
Date/Time
EDT
Temp
°C
App
Temp
°C
Dew
Point
Rel
Hum
%
Delta-T
°C
Wind Press
QNH
hPa
Press
MSL
hPa
Rain
since 9 am
mm
Dir
 
Spd
km/h
Gust
km/h
Spd
kts
Gust
kts
29/11:00pm 8.9 5.5 2.0 62 3.2 NW 9 13 5 7 - - 0.0
29/10:30pm 9.1 5.7 2.0 61 3.3 WNW 9 15 5 8 - - 0.0
29/10:00pm 9.3 5.9 1.7 59 3.5 SW 9 15 5 8 - - 0.0
29/09:30pm 9.9 5.7 1.8 57 3.7 W 13 19 7 10 - - 0.0
29/09:00pm 9.8 6.7 1.5 56 3.8 SW 7 13 4 7 - - 0.0
29/08:30pm 9.7 6.6 1.1 55 3.9 W 7 13 4 7 - - 0.0
29/08:00pm 10.3 6.7 0.9 52 4.2 WNW 9 15 5 8 - - 0.0
29/07:30pm 10.6 7.3 -0.2 47 4.8 W 7 13 4 7 - - 0.0
29/07:00pm 11.2 8.4 -0.6 44 5.2 SW 4 9 2 5 - - 0.0
29/06:30pm 12.3 8.2 -0.2 42 5.6 W 11 17 6 9 - - 0.0
29/05:30pm 13.9 9.0 -0.5 37 6.5 WNW 15 22 8 12 - - 0.0
29/05:00pm 14.7 10.1 -1.0 34 7.1 WNW 13 20 7 11 - - 0.0
29/04:30pm 15.1 9.7 -1.0 33 7.3 WNW 17 22 9 12 - - 0.0
29/04:00pm 15.2 10.8 0.2 36 6.9 WNW 13 19 7 10 - - 0.0
29/03:30pm 15.0 10.4 1.5 40 6.4 WNW 15 20 8 11 - - 0.0
29/03:00pm 14.1 10.3 2.0 44 5.8 NW 11 19 6 10 - - 0.0
29/02:30pm 14.3 9.6 1.2 41 6.2 WNW 15 22 8 12 - - 0.0
29/02:00pm 14.6 9.7 2.2 43 6.0 WNW 17 22 9 12 - - 0.0
29/01:30pm 14.3 10.1 1.9 43 5.9 WNW 13 20 7 11 - - 0.0
29/01:00pm 13.4 10.0 2.0 46 5.4 WNW 9 13 5 7 - - 0.0
29/12:30pm 12.3 8.7 0.4 44 5.4 WNW 9 15 5 8 - - 0.0
29/12:00pm 11.9 7.9 0.7 46 5.1 WNW 11 15 6 8 - - 0.0
29/11:30am 11.1 7.5 0.5 48 4.8 NW 9 15 5 8 - - 0.0
29/11:00am 10.2 5.4 0.0 49 4.5 NW 15 19 8 10 - - 0.0
29/10:30am 10.2 6.6 0.3 50 4.4 WNW 9 15 5 8 - - 0.0
29/10:00am 9.6 5.8 -0.6 49 4.4 SW 9 11 5 6 - - 0.0
29/09:30am 9.1 5.0 0.0 53 4.0 WSW 11 17 6 9 - - 0.0
29/09:00am 8.4 3.9 -0.6 53 3.9 SW 13 15 7 8 - - 0.0
29/08:30am 7.6 3.0 -1.4 53 3.8 SW 13 17 7 9 - - 0.0
29/08:00am 7.0 3.1 -1.7 54 3.6 WSW 9 13 5 7 - - 0.0
29/07:30am 6.9 2.6 -1.7 54 3.5 SW 11 13 6 7 - - 0.0
29/07:00am 6.9 3.0 -1.5 55 3.5 SW 9 11 5 6 - - 0.0
29/06:30am 7.0 3.2 -0.9 57 3.3 WSW 9 13 5 7 - - 0.0
29/05:30am 6.9 3.1 -0.5 59 3.1 W 9 11 5 6 - - 0.0
29/05:00am 7.1 2.6 -0.6 58 3.3 NW 13 17 7 9 - - 0.0
29/04:30am 6.8 2.7 -0.4 60 3.1 NW 11 15 6 8 - - 0.0
29/04:00am 6.9 3.2 -0.3 60 3.1 W 9 13 5 7 - - 0.0
29/03:30am 7.1 2.5 -0.8 57 3.3 NNW 13 15 7 8 - - 0.0
29/03:00am 6.8 3.0 -0.6 59 3.1 NNW 9 13 5 7 - - 0.0
29/02:30am 6.8 2.6 -0.6 59 3.1 NW 11 13 6 7 - - 0.0
29/02:00am 7.2 2.6 -0.7 57 3.3 NW 13 15 7 8 - - 0.0
29/01:30am 7.6 3.8 -0.4 57 3.4 NNW 9 13 5 7 - - 0.0
29/01:00am 7.7 3.7 0.2 59 3.3 NNW 11 13 6 7 - - 0.0
29/12:30am 7.8 4.2 0.3 59 3.3 N 9 13 5 7 - - 0.0
29/12:00am 7.9 4.5 -0.3 56 3.5 N 7 9 4 5 - - 0.0
 
Date/Time
EDT
Temp
°C
App
Temp
°C
Dew
Point
Rel
Hum
%
Delta-T
°C
Wind Press
QNH
hPa
Press
MSL
hPa
Rain
since 9 am
mm
Dir
 
Spd
km/h
Gust
km/h
Spd
kts
Gust
kts
28/11:30pm 8.3 5.0 -0.2 55 3.7 N 7 9 4 5 - - 0.0
28/11:00pm 8.7 6.7 -0.1 54 3.8 CALM 0 0 0 0 - - 0.0
28/10:30pm 8.1 6.1 0.1 57 3.5 CALM 0 6 0 3 - - 0.0
28/10:00pm 8.2 5.1 0.2 57 3.5 WNW 6 7 3 4 - - 0.0
28/09:30pm 8.5 6.2 0.2 56 3.6 W 2 9 1 5 - - 0.0
28/09:00pm 8.7 5.3 -0.6 52 4.0 W 7 11 4 6 - - 0.0
28/08:30pm 9.1 5.8 -1.0 49 4.3 SW 6 11 3 6 - - 0.0
28/08:00pm 9.3 6.8 -1.1 48 4.4 WNW 2 7 1 4 - - 0.0
28/07:30pm 9.3 7.2 -0.6 50 4.3 CALM 0 2 0 1 - - 0.0
28/07:00pm 10.5 7.2 0.3 49 4.6 WNW 7 9 4 5 - - 0.0
28/06:30pm 11.7 8.0 0.2 45 5.2 W 9 13 5 7 - - 0.0
28/06:00pm 11.9 8.4 1.0 47 5.0 NW 9 13 5 7 - - 0.0
28/05:30pm 11.8 8.4 2.0 51 4.6 NW 9 13 5 7 - - 0.0
28/05:00pm 12.7 8.9 2.0 48 5.0 WNW 11 19 6 10 - - 0.0
28/04:30pm 13.2 9.2 3.0 50 4.9 NW 13 20 7 11 - - 0.0
28/04:00pm 12.8 8.5 3.5 53 4.5 NW 15 24 8 13 - - 0.0
28/03:30pm 13.1 9.1 2.6 49 5.0 WNW 13 22 7 12 - - 0.0
28/03:00pm 13.1 8.8 3.5 52 4.7 NW 15 22 8 12 - - 0.0
28/02:30pm 12.0 7.9 2.5 52 4.5 W 13 17 7 9 - - 0.0
28/02:00pm 12.2 8.4 3.9 57 4.1 NW 13 20 7 11 - - 0.0
28/01:30pm 12.4 9.2 4.9 60 3.8 NW 11 19 6 10 - - 0.0
28/01:00pm 11.6 7.5 2.1 52 4.5 NW 13 17 7 9 - - 0.0
28/12:30pm 11.3 7.4 3.3 58 3.8 NW 13 19 7 10 - - 0.0
28/12:00pm 9.6 5.4 1.5 57 3.7 NNW 13 19 7 10 - - 0.0
28/11:30am 9.3 6.1 3.3 66 2.8 NW 9 13 5 7 - - 0.0
28/11:00am 8.8 5.9 2.6 65 2.9 NW 7 11 4 6 - - 0.0
28/10:30am 8.0 5.0 1.0 61 3.1 NW 6 9 3 5 - - 0.0
28/10:00am 8.4 5.0 1.6 62 3.1 ENE 9 15 5 8 - - 0.0
28/09:30am 7.3 3.7 0.7 63 2.9 ENE 9 13 5 7 - - 0.0
28/09:00am 5.5 1.5 0.5 70 2.1 E 11 17 6 9 - - 0.0
28/08:30am 5.0 2.2 -0.2 69 2.2 ENE 4 11 2 6 - - 0.0
28/08:00am 4.1 2.2 0.3 76 1.6 CALM 0 0 0 0 - - 0.0
28/07:30am 3.0 1.0 -0.1 80 1.3 CALM 0 0 0 0 - - 0.0
28/07:00am 3.2 0.8 -0.1 79 1.4 WSW 2 6 1 3 - - 0.0
28/06:30am 2.8 -1.2 0.4 84 1.0 E 11 15 6 8 - - 0.0
28/06:00am 2.3 -3.4 0.5 88 0.7 E 20 26 11 14 - - 0.0
28/05:30am 2.6 -1.7 0.7 87 0.8 E 13 19 7 10 - - 0.0
28/05:00am 3.0 -0.6 0.9 86 0.9 ESE 9 15 5 8 - - 0.0
28/04:30am 2.8 -0.7 1.3 90 0.6 SE 9 15 5 8 - - 0.0
28/04:00am 2.7 -0.7 1.7 93 0.4 SSE 9 13 5 7 - - 0.0
28/03:30am 2.9 -0.1 2.3 96 0.3 SSE 7 13 4 7 - - 0.0
28/03:00am 3.0 0.3 2.9 99 0.0 S 6 7 3 4 - - 0.0
28/02:30am 2.8 -0.1 2.5 98 0.1 SW 7 9 4 5 - - 0.0
28/02:00am 3.5 0.7 3.2 98 0.1 SW 7 13 4 7 - - 0.0
28/01:30am 3.6 1.4 3.3 98 0.1 SSW 4 7 2 4 - - 0.0
28/01:00am 3.8 1.1 3.5 98 0.1 WSW 7 11 4 6 - - 0.0
28/12:30am 3.7 0.6 3.4 98 0.1 SW 9 13 5 7 - - 0.0
28/12:00am 3.9 -0.7 3.5 97 0.2 WSW 17 28 9 15 - - 0.0
 
Date/Time
EDT
Temp
°C
App
Temp
°C
Dew
Point
Rel
Hum
%
Delta-T
°C
Wind Press
QNH
hPa
Press
MSL
hPa
Rain
since 9 am
mm
Dir
 
Spd
km/h
Gust
km/h
Spd
kts
Gust
kts
27/11:30pm 3.9 -0.4 3.2 95 0.3 WSW 15 22 8 12 - - 0.0
27/11:00pm 4.0 0.0 3.1 94 0.4 WSW 13 20 7 11 - - 0.0
27/10:30pm 4.3 0.3 3.0 91 0.6 WSW 13 24 7 13 - - 0.0
27/10:00pm 4.8 0.1 3.1 89 0.8 W 17 28 9 15 - - 0.0
27/09:30pm 5.2 0.1 3.1 86 1.0 W 19 32 10 17 - - 0.0
27/09:00pm 5.6 0.5 2.9 83 1.2 WSW 19 30 10 16 - - 0.0
27/08:30pm 5.7 1.3 2.9 82 1.3 WSW 15 20 8 11 - - 0.0
27/08:00pm 5.8 2.2 3.0 82 1.3 WSW 11 20 6 11 - - 0.0
27/07:30pm 5.8 1.8 3.0 82 1.3 WSW 13 30 7 16 - - 0.0
27/07:00pm 5.9 1.2 2.9 81 1.4 WSW 17 33 9 18 - - 0.0
27/06:30pm 6.2 0.6 3.2 81 1.4 W 22 37 12 20 - - 0.0
27/06:00pm 7.0 0.2 3.3 77 1.7 W 28 39 15 21 - - 0.0
27/05:34pm 6.8 -0.3 3.4 79 1.6 W 30 48 16 26 - - 0.0
27/05:30pm 6.6 -0.1 3.4 80 1.5 W 28 43 15 23 - - 0.0
27/05:00pm 6.2 -0.9 3.5 83 1.2 W 30 48 16 26 - - 0.0
27/04:41pm 6.1 -1.0 3.3 82 1.3 W 30 54 16 29 - - 0.0
27/04:30pm 6.2 -0.5 3.5 83 1.2 W 28 44 15 24 - - 0.0
27/04:00pm 5.9 -1.7 3.1 82 1.3 W 32 50 17 27 - - 0.0
27/03:30pm 5.9 -1.9 3.1 82 1.3 W 33 59 18 32 - - 0.0
27/03:00pm 5.6 -2.2 3.1 84 1.1 WSW 33 54 18 29 - - 0.0
27/02:30pm 6.2 -1.6 3.0 80 1.5 WSW 33 56 18 30 - - 0.0
27/02:02pm 4.8 -3.0 3.0 88 0.8 W 33 59 18 32 - - 0.0
27/02:00pm 5.0 -2.5 3.3 89 0.8 W 32 44 17 24 - - 0.0
27/01:30pm 5.1 -1.9 3.9 92 0.6 W 30 48 16 26 - - 0.0
27/01:06pm 4.7 -2.4 3.8 94 0.4 W 30 48 16 26 - - 0.0
27/01:00pm 4.7 -2.9 3.8 94 0.4 W 33 50 18 27 - - 0.0
27/12:30pm 4.0 -3.0 3.9 99 0.0 W 30 44 16 24 - - 0.0
27/12:00pm 3.7 -3.8 3.6 99 0.0 W 32 50 17 27 - - 0.0
27/11:57am 3.2 -4.0 3.1 99 0.0 W 30 50 16 27 - - 0.0
27/11:30am 2.7 -4.6 2.6 99 0.0 W 30 41 16 22 - - 0.0
27/11:00am 2.6 -4.3 2.5 99 0.0 W 28 50 15 27 - - 0.0
27/10:30am 2.5 -4.4 2.4 99 0.0 WNW 28 41 15 22 - - 0.0
27/10:00am 2.2 -4.0 2.1 99 0.0 W 24 37 13 20 - - 0.0
27/09:30am 1.9 -4.7 1.8 99 0.0 W 26 41 14 22 - - 0.0
27/09:00am 1.8 -4.9 1.7 99 0.0 W 26 39 14 21 - - 0.0
27/08:30am 1.6 -4.3 1.5 99 0.0 W 22 35 12 19 - - 0.0
27/08:00am 1.5 -4.8 1.4 99 0.0 W 24 35 13 19 - - 0.0
27/07:30am 1.4 -5.3 1.3 99 0.0 W 26 37 14 20 - - 0.0
27/07:00am 1.1 -4.9 1.0 99 0.0 W 22 37 12 20 - - 0.0
27/06:30am 1.0 -4.6 0.9 99 0.0 W 20 30 11 16 - - 0.0
27/06:00am 1.1 -5.3 1.0 99 0.0 W 24 37 13 20 - - 0.0
27/05:30am 1.1 -6.4 1.0 99 0.0 WNW 30 39 16 21 - - 0.0
27/05:00am 1.2 -6.0 0.6 96 0.2 WNW 28 41 15 22 - - 0.0
27/04:30am 1.4 -6.3 0.2 92 0.5 WNW 30 41 16 22 - - 0.0
27/04:00am 1.5 -6.2 -0.3 88 0.7 WNW 30 43 16 23 - - 0.0
27/03:30am 1.8 -6.3 -0.4 85 0.9 W 32 54 17 29 - - 0.0
27/03:00am 2.0 -6.1 -0.6 83 1.0 WNW 32 46 17 25 - - 0.0
27/02:30am 2.0 -5.8 -1.1 80 1.2 WNW 30 43 16 23 - - 0.0
27/02:00am 2.3 -6.0 -1.5 76 1.5 WNW 32 48 17 26 - - 0.0
27/01:30am 2.3 -6.1 -2.2 72 1.7 WNW 32 50 17 27 - - 0.0
27/01:00am 2.6 -6.0 -2.5 69 2.0 W 33 52 18 28 - - 0.0
27/12:41am 2.7 -5.9 -2.6 68 2.0 WNW 33 52 18 28 - - 0.0
27/12:30am 2.7 -6.3 -2.8 67 2.1 WNW 35 50 19 27 - - 0.0
27/12:03am 2.9 -6.1 -2.8 66 2.2 WNW 35 56 19 30 - - 0.0
27/12:00am 2.9 -6.1 -2.8 66 2.2 WNW 35 52 19 28 - - 0.0
 
Date/Time
EDT
Temp
°C
App
Temp
°C
Dew
Point
Rel
Hum
%
Delta-T
°C
Wind Press
QNH
hPa
Press
MSL
hPa
Rain
since 9 am
mm
Dir
 
Spd
km/h
Gust
km/h
Spd
kts
Gust
kts
26/11:37pm 3.0 -6.4 -2.9 65 2.3 WNW 37 57 20 31 - - 0.0
26/11:30pm 3.0 -6.0 -2.9 65 2.3 WNW 35 50 19 27 - - 0.0

Other Formats:

Comma delimited format used in spreadsheet applications
http://www.bom.gov.au/fwo/IDN60801/IDN60801.95916.axf

JavaScript Object Notation format (JSON) in row-major order
http://www.bom.gov.au/fwo/IDN60801/IDN60801.95916.json